createdAt,value
2017-10-01T00:00:50.387Z,6.60
2017-10-01T00:03:18.756Z,6.80
2017-10-01T00:05:50.765Z,7.32
2017-10-01T00:08:18.422Z,7.20
2017-10-01T00:10:45.980Z,8.03
2017-10-01T00:13:13.492Z,8.20
2017-10-01T00:15:41.766Z,8.45
2017-10-01T00:18:09.534Z,7.83
2017-10-01T00:20:37.038Z,8.97
2017-10-01T00:23:04.796Z,8.93
2017-10-01T00:25:32.587Z,8.80
2017-10-01T00:28:00.120Z,8.02
2017-10-01T00:30:27.667Z,9.40
2017-10-01T00:32:56.091Z,9.77
2017-10-01T00:35:23.632Z,10.13
2017-10-01T00:37:51.187Z,8.80
2017-10-01T00:40:18.807Z,8.37
2017-10-01T00:42:46.346Z,8.60
2017-10-01T00:45:14.823Z,8.53
2017-10-01T00:47:42.391Z,8.43
2017-10-01T00:50:09.903Z,7.97
2017-10-01T00:52:37.407Z,7.07
2017-10-01T00:55:04.966Z,7.57
2017-10-01T00:57:32.838Z,9.43
2017-10-01T01:00:00.395Z,8.57
2017-10-01T01:02:28.666Z,8.77
2017-10-01T01:04:56.575Z,8.50
2017-10-01T01:07:24.359Z,7.85
2017-10-01T01:09:52.324Z,7.95
2017-10-01T01:12:19.868Z,10.37
2017-10-01T01:14:47.590Z,8.32
2017-10-01T01:17:15.601Z,10.02
2017-10-01T01:19:43.139Z,8.60
2017-10-01T01:22:11.415Z,8.80
2017-10-01T01:24:43.208Z,9.80
2017-10-01T01:27:10.721Z,9.50
2017-10-01T01:29:39.048Z,9.73
2017-10-01T01:32:06.590Z,9.15
2017-10-01T01:34:34.131Z,7.43
2017-10-01T01:37:02.808Z,7.45
2017-10-01T01:39:30.659Z,8.07
2017-10-01T01:41:58.198Z,8.13
2017-10-01T01:44:26.695Z,7.20
2017-10-01T01:46:54.240Z,7.20
2017-10-01T01:49:21.802Z,7.20
2017-10-01T01:51:49.307Z,6.37
2017-10-01T01:54:17.572Z,6.90
2017-10-01T01:56:46.268Z,5.68
2017-10-01T01:59:13.858Z,6.50
2017-10-01T02:01:41.379Z,6.15
2017-10-01T02:04:10.597Z,4.70
2017-10-01T02:06:38.147Z,5.30
2017-10-01T02:09:13.480Z,4.30
2017-10-01T02:11:41.898Z,4.80
2017-10-01T02:14:09.402Z,5.20
2017-10-01T02:16:36.920Z,5.43
2017-10-01T02:19:04.459Z,5.00
2017-10-01T02:21:31.966Z,5.57
2017-10-01T02:24:04.012Z,4.80
2017-10-01T02:26:31.516Z,5.43
2017-10-01T02:29:01.307Z,4.90
2017-10-01T02:31:28.831Z,5.20
2017-10-01T02:33:56.338Z,5.33
2017-10-01T02:36:25.587Z,4.40
2017-10-01T02:38:53.099Z,5.23
2017-10-01T02:41:21.716Z,6.10
2017-10-01T02:43:50.157Z,6.12
2017-10-01T02:46:18.479Z,6.80
2017-10-01T02:48:46.480Z,6.23
2017-10-01T02:51:15.229Z,7.80
2017-10-01T02:53:42.734Z,7.27
2017-10-01T02:56:10.246Z,6.30
2017-10-01T02:58:37.894Z,6.40
2017-10-01T03:01:05.440Z,6.50
2017-10-01T03:03:33.758Z,6.62
2017-10-01T03:06:01.266Z,7.12
2017-10-01T03:08:32.971Z,6.57
2017-10-01T03:11:00.632Z,8.97
2017-10-01T03:13:28.762Z,6.68
2017-10-01T03:15:56.363Z,6.57
2017-10-01T03:18:23.881Z,6.10
2017-10-01T03:20:53.066Z,6.55
2017-10-01T03:23:24.761Z,6.15
2017-10-01T03:25:52.267Z,6.40
2017-10-01T03:28:19.831Z,7.07
2017-10-01T03:30:48.856Z,7.50
2017-10-01T03:33:16.351Z,6.90
2017-10-01T03:35:43.910Z,6.55
2017-10-01T03:38:11.418Z,7.83
2017-10-01T03:40:39.727Z,6.60
2017-10-01T03:43:07.539Z,6.20
2017-10-01T03:45:35.083Z,6.67
2017-10-01T03:48:02.611Z,7.30
2017-10-01T03:50:30.145Z,6.67
2017-10-01T03:52:58.040Z,8.37
2017-10-01T03:55:26.471Z,8.30
2017-10-01T03:57:53.991Z,8.02
2017-10-01T04:00:21.531Z,6.80
2017-10-01T04:02:49.056Z,7.30
2017-10-01T04:05:17.361Z,7.70
2017-10-01T04:07:45.810Z,7.20
2017-10-01T04:10:17.500Z,7.70
2017-10-01T04:12:45.004Z,8.10
2017-10-01T04:15:12.789Z,7.00
2017-10-01T04:17:40.694Z,7.80
2017-10-01T04:20:08.253Z,8.57
2017-10-01T04:22:35.762Z,9.00
2017-10-01T04:25:06.861Z,7.97
2017-10-01T04:27:34.399Z,8.30
2017-10-01T04:30:02.668Z,9.07
2017-10-01T04:32:30.226Z,10.10
2017-10-01T04:34:58.581Z,11.68
2017-10-01T04:37:26.088Z,9.30
2017-10-01T04:40:01.637Z,10.77
2017-10-01T04:42:29.202Z,11.10
2017-10-01T04:44:56.715Z,11.70
2017-10-01T04:47:25.940Z,12.00
2017-10-01T04:49:53.507Z,11.90
2017-10-01T04:52:21.050Z,14.47
2017-10-01T04:54:51.691Z,14.47
2017-10-01T04:57:19.720Z,13.50
2017-10-01T04:59:47.348Z,14.10
2017-10-01T05:02:14.895Z,14.40
2017-10-01T05:04:42.398Z,13.63
2017-10-01T05:07:09.907Z,15.57
2017-10-01T05:09:37.951Z,12.40
2017-10-01T05:12:05.571Z,14.10
2017-10-01T05:14:33.990Z,14.02
2017-10-01T05:17:01.591Z,13.00
2017-10-01T05:19:29.297Z,14.95
2017-10-01T05:21:56.846Z,15.10
2017-10-01T05:24:24.435Z,13.57
2017-10-01T05:26:52.311Z,15.00
2017-10-01T05:29:19.865Z,14.70
2017-10-01T05:31:48.003Z,14.57
2017-10-01T05:34:15.546Z,16.80
2017-10-01T05:36:43.056Z,17.50
2017-10-01T05:39:10.850Z,17.95
2017-10-01T05:41:38.398Z,17.10
2017-10-01T05:44:06.678Z,17.86
2017-10-01T05:46:34.458Z,18.37
2017-10-01T05:49:02.931Z,16.95
2017-10-01T05:51:31.412Z,19.37
2017-10-01T05:53:58.958Z,18.67
2017-10-01T05:56:27.137Z,17.92
2017-10-01T05:58:55.104Z,20.87
2017-10-01T06:01:22.811Z,18.63
2017-10-01T06:03:50.603Z,21.67
2017-10-01T06:06:18.107Z,21.80
2017-10-01T06:08:45.619Z,20.57
2017-10-01T06:11:17.336Z,20.70
2017-10-01T06:13:45.430Z,18.45
2017-10-01T06:16:12.948Z,19.90
2017-10-01T06:18:40.479Z,20.87
2017-10-01T06:21:08.018Z,18.23
2017-10-01T06:23:35.614Z,19.00
2017-10-01T06:26:03.274Z,21.37
2017-10-01T06:28:30.835Z,20.97
2017-10-01T06:30:59.743Z,19.85
2017-10-01T06:33:27.292Z,20.20
2017-10-01T06:35:54.803Z,19.77
2017-10-01T06:38:22.683Z,19.70
2017-10-01T06:40:50.210Z,21.50
2017-10-01T06:43:19.207Z,20.40
2017-10-01T06:45:46.720Z,19.70
2017-10-01T06:48:14.387Z,19.43
2017-10-01T06:50:42.630Z,20.60
2017-10-01T06:53:10.599Z,18.75
2017-10-01T06:55:38.899Z,18.92
2017-10-01T06:58:09.747Z,20.07
2017-10-01T07:00:38.421Z,18.50
2017-10-01T07:03:05.967Z,19.17
2017-10-01T07:05:33.517Z,17.07
2017-10-01T07:08:01.360Z,19.10
2017-10-01T07:10:29.176Z,19.50
2017-10-01T07:12:56.987Z,19.83
2017-10-01T07:15:24.495Z,17.63
2017-10-01T07:17:52.043Z,17.95
2017-10-01T07:20:19.592Z,20.30
2017-10-01T07:22:47.163Z,16.43
2017-10-01T07:25:15.602Z,17.98
2017-10-01T07:27:43.142Z,18.73
2017-10-01T07:30:10.643Z,16.70
2017-10-01T07:32:38.971Z,18.53
2017-10-01T07:35:06.509Z,17.70
2017-10-01T07:37:35.709Z,18.37
2017-10-01T07:40:03.255Z,19.30
2017-10-01T07:42:34.176Z,14.53
2017-10-01T07:45:02.459Z,15.33
2017-10-01T07:47:30.273Z,17.35
2017-10-01T07:49:57.830Z,15.33
2017-10-01T07:52:25.503Z,16.63
2017-10-01T07:54:53.146Z,14.32
2017-10-01T07:57:20.706Z,15.30
2017-10-01T07:59:49.318Z,15.30
2017-10-01T08:02:18.376Z,15.60
2017-10-01T08:04:45.912Z,14.70
2017-10-01T08:07:14.301Z,15.30
2017-10-01T08:09:55.677Z,15.35
2017-10-01T08:12:24.275Z,17.70
2017-10-01T08:14:52.223Z,15.75
2017-10-01T08:17:19.735Z,17.73
2017-10-01T08:19:47.275Z,17.03
2017-10-01T08:22:15.403Z,17.80
2017-10-01T08:24:42.933Z,16.57
2017-10-01T08:27:10.648Z,17.77
2017-10-01T08:29:45.360Z,13.87
2017-10-01T08:32:13.030Z,14.20
2017-10-01T08:34:40.546Z,13.60
2017-10-01T08:37:08.216Z,13.70
2017-10-01T08:39:36.330Z,12.50
2017-10-01T08:42:04.151Z,12.83
2017-10-01T08:44:31.659Z,14.50
2017-10-01T08:47:00.551Z,13.93
2017-10-01T08:49:28.226Z,15.00
2017-10-01T08:51:55.746Z,13.48
2017-10-01T08:54:24.273Z,14.33
2017-10-01T08:56:51.917Z,15.40
2017-10-01T08:59:19.423Z,13.65
2017-10-01T09:01:46.980Z,13.33
2017-10-01T09:04:14.528Z,13.52
2017-10-01T09:06:42.091Z,14.00
2017-10-01T09:09:09.595Z,13.13
2017-10-01T09:11:37.728Z,12.52
2017-10-01T09:14:09.028Z,12.98
2017-10-01T09:16:47.031Z,13.45
2017-10-01T09:19:14.950Z,11.88
2017-10-01T09:21:42.489Z,12.87
2017-10-01T09:24:10.063Z,9.35
2017-10-01T09:26:37.939Z,9.37
2017-10-01T09:29:05.459Z,9.80
2017-10-01T09:31:37.419Z,10.16
2017-10-01T09:34:04.947Z,10.30
2017-10-01T09:36:32.731Z,9.50
2017-10-01T09:39:00.239Z,10.50
2017-10-01T09:41:29.204Z,10.23
2017-10-01T09:43:57.354Z,8.47
2017-10-01T09:46:25.335Z,9.40
2017-10-01T09:48:53.280Z,9.68
2017-10-01T09:51:20.799Z,9.17
2017-10-01T09:53:48.366Z,10.70
2017-10-01T09:56:15.887Z,11.07
2017-10-01T09:58:43.395Z,9.63
2017-10-01T10:01:11.288Z,10.83
2017-10-01T10:03:38.867Z,10.23
2017-10-01T10:06:06.808Z,9.55
2017-10-01T10:08:34.351Z,9.10
2017-10-01T10:11:02.665Z,9.73
2017-10-01T10:13:30.183Z,9.48
2017-10-01T10:15:58.803Z,9.13
2017-10-01T10:18:26.841Z,9.80
2017-10-01T10:20:54.383Z,6.90
2017-10-01T10:23:21.930Z,7.20
2017-10-01T10:25:49.442Z,7.97
2017-10-01T10:28:17.000Z,6.57
2017-10-01T10:30:45.091Z,7.75
2017-10-01T10:33:12.600Z,8.18
2017-10-01T10:35:40.912Z,10.90
2017-10-01T10:38:08.462Z,8.13
2017-10-01T10:40:36.008Z,8.15
2017-10-01T10:43:04.456Z,8.60
2017-10-01T10:45:35.335Z,7.00
2017-10-01T10:48:02.848Z,6.93
2017-10-01T10:50:30.385Z,7.95
2017-10-01T10:52:57.924Z,7.90
2017-10-01T10:55:25.459Z,6.70
2017-10-01T10:57:53.031Z,6.47
2017-10-01T11:00:20.540Z,4.47
2017-10-01T11:02:48.478Z,6.87
2017-10-01T11:05:16.522Z,7.20
2017-10-01T11:07:44.263Z,7.60
2017-10-01T11:10:11.817Z,7.90
2017-10-01T11:12:40.122Z,6.70
2017-10-01T11:15:07.619Z,6.37
2017-10-01T11:17:35.159Z,8.13
2017-10-01T11:20:02.715Z,8.03
2017-10-01T11:22:30.557Z,7.53
2017-10-01T11:24:58.062Z,6.60
2017-10-01T11:27:25.585Z,7.00
2017-10-01T11:29:53.189Z,7.37
2017-10-01T11:32:21.407Z,7.72
2017-10-01T11:34:49.691Z,7.10
2017-10-01T11:37:17.491Z,7.20
2017-10-01T11:39:45.959Z,6.47
2017-10-01T11:42:13.515Z,7.73
2017-10-01T11:44:41.018Z,7.67
2017-10-01T11:47:08.555Z,6.68
2017-10-01T11:49:36.555Z,6.37
2017-10-01T11:52:05.807Z,7.25
2017-10-01T11:54:33.651Z,6.90
2017-10-01T11:57:01.174Z,6.73
2017-10-01T11:59:28.708Z,7.43
2017-10-01T12:02:03.412Z,6.07
2017-10-01T12:04:30.955Z,6.30
2017-10-01T12:06:58.582Z,6.00
2017-10-01T12:09:27.147Z,7.13
2017-10-01T12:11:54.724Z,6.20
2017-10-01T12:14:22.233Z,6.03
2017-10-01T12:16:49.767Z,6.63
2017-10-01T12:19:17.294Z,5.80
2017-10-01T12:21:44.877Z,6.90
2017-10-01T12:24:12.397Z,6.30
2017-10-01T12:26:39.910Z,6.83
2017-10-01T12:29:07.482Z,6.43
2017-10-01T12:31:35.033Z,6.60
2017-10-01T12:34:03.087Z,5.97
2017-10-01T12:36:30.701Z,6.47
2017-10-01T12:38:58.256Z,6.80
2017-10-01T12:41:25.999Z,5.93
2017-10-01T12:43:53.512Z,5.83
2017-10-01T12:46:21.998Z,6.70
2017-10-01T12:48:50.420Z,6.93
2017-10-01T12:51:18.006Z,5.90
2017-10-01T12:53:45.552Z,5.40
2017-10-01T12:56:13.097Z,7.17
2017-10-01T12:58:41.415Z,6.75
2017-10-01T13:01:08.966Z,7.70
2017-10-01T13:03:40.634Z,7.62
2017-10-01T13:06:08.146Z,7.17
2017-10-01T13:08:36.355Z,7.87
2017-10-01T13:11:03.922Z,7.20
2017-10-01T13:13:31.465Z,6.83
2017-10-01T13:15:58.991Z,5.80
2017-10-01T13:18:26.499Z,5.45
2017-10-01T13:20:54.067Z,6.32
2017-10-01T13:23:21.692Z,5.60
2017-10-01T13:25:49.747Z,5.15
2017-10-01T13:28:17.282Z,5.57
2017-10-01T13:30:45.077Z,5.40
2017-10-01T13:33:12.663Z,5.00
2017-10-01T13:35:40.160Z,4.85
2017-10-01T13:38:07.731Z,4.73
2017-10-01T13:40:35.275Z,5.10
2017-10-01T13:43:04.470Z,5.90
2017-10-01T13:45:32.068Z,6.90
2017-10-01T13:47:59.832Z,6.20
2017-10-01T13:50:32.111Z,6.78
2017-10-01T13:52:59.644Z,5.57
2017-10-01T13:55:27.425Z,7.00
2017-10-01T13:57:54.953Z,6.70
2017-10-01T14:00:23.484Z,7.45
2017-10-01T14:02:51.063Z,7.90
2017-10-01T14:05:24.893Z,9.63
2017-10-01T14:07:54.142Z,8.40
2017-10-01T14:10:21.651Z,8.23
2017-10-01T14:12:49.971Z,8.03
2017-10-01T14:15:17.505Z,8.40
2017-10-01T14:17:45.015Z,9.75
2017-10-01T14:20:17.253Z,10.45
2017-10-01T14:22:44.764Z,9.70
2017-10-01T14:25:12.315Z,9.50
2017-10-01T14:27:39.984Z,7.43
2017-10-01T14:30:08.567Z,7.25
2017-10-01T14:32:36.116Z,7.07
2017-10-01T14:35:07.593Z,7.77
2017-10-01T14:37:35.923Z,7.17
2017-10-01T14:40:03.482Z,7.27
2017-10-01T14:42:30.997Z,7.93
2017-10-01T14:44:58.518Z,8.40
2017-10-01T14:47:26.617Z,8.47
2017-10-01T14:49:54.130Z,6.97
2017-10-01T14:52:22.308Z,7.75
2017-10-01T14:54:49.880Z,8.07
2017-10-01T14:57:17.435Z,8.30
2017-10-01T14:59:44.950Z,8.05
2017-10-01T15:02:12.495Z,6.75
2017-10-01T15:04:40.015Z,8.60
2017-10-01T15:07:07.566Z,6.50
2017-10-01T15:09:36.494Z,8.55
2017-10-01T15:12:04.039Z,7.40
2017-10-01T15:14:31.577Z,7.87
2017-10-01T15:17:00.107Z,6.32
2017-10-01T15:19:27.976Z,6.13
2017-10-01T15:21:55.498Z,6.20
2017-10-01T15:24:23.087Z,6.80
2017-10-01T15:26:50.644Z,7.35
2017-10-01T15:29:19.930Z,6.83
2017-10-01T15:31:48.223Z,7.87
2017-10-01T15:34:15.814Z,7.43
2017-10-01T15:36:44.190Z,6.00
2017-10-01T15:39:11.695Z,6.57
2017-10-01T15:41:39.279Z,6.90
2017-10-01T15:44:06.783Z,7.07
2017-10-01T15:46:34.523Z,5.93
2017-10-01T15:49:02.034Z,5.82
2017-10-01T15:51:33.123Z,7.30
2017-10-01T15:54:00.631Z,6.40
2017-10-01T15:56:28.227Z,6.53
2017-10-01T15:58:55.736Z,5.87
2017-10-01T16:01:23.279Z,7.10
2017-10-01T16:03:50.792Z,7.40
2017-10-01T16:06:23.395Z,7.00
2017-10-01T16:08:50.976Z,7.67
2017-10-01T16:11:18.496Z,6.68
2017-10-01T16:13:46.063Z,7.20
2017-10-01T16:16:13.594Z,7.23
2017-10-01T16:18:42.795Z,5.70
2017-10-01T16:21:13.672Z,7.57
2017-10-01T16:23:41.231Z,8.43
2017-10-01T16:26:08.860Z,8.02
2017-10-01T16:28:37.579Z,7.75
2017-10-01T16:31:05.319Z,8.37
2017-10-01T16:33:32.904Z,7.20
2017-10-01T16:36:00.409Z,7.82
2017-10-01T16:38:28.634Z,8.73
2017-10-01T16:40:56.994Z,8.38
2017-10-01T16:43:24.525Z,7.73
2017-10-01T16:45:52.076Z,6.77
2017-10-01T16:48:19.584Z,8.87
2017-10-01T16:50:47.406Z,7.55
2017-10-01T16:53:16.455Z,9.20
2017-10-01T16:55:44.051Z,7.33
2017-10-01T16:58:11.548Z,9.02
2017-10-01T17:00:39.068Z,9.07
2017-10-01T17:03:06.691Z,8.75
2017-10-01T17:05:35.270Z,9.25
2017-10-01T17:08:02.801Z,10.03
2017-10-01T17:10:31.119Z,8.77
2017-10-01T17:12:59.578Z,8.65
2017-10-01T17:15:27.092Z,9.90
2017-10-01T17:17:54.982Z,9.07
2017-10-01T17:20:22.518Z,9.97
2017-10-01T17:22:50.228Z,7.85
2017-10-01T17:25:19.023Z,8.75
2017-10-01T17:27:46.580Z,10.27
2017-10-01T17:30:14.091Z,9.40
2017-10-01T17:32:41.629Z,7.40
2017-10-01T17:35:09.212Z,8.87
2017-10-01T17:37:36.754Z,9.13
2017-10-01T17:40:05.790Z,8.00
2017-10-01T17:42:33.342Z,8.10
2017-10-01T17:45:02.539Z,8.80
2017-10-01T17:47:30.337Z,9.30
2017-10-01T17:49:57.899Z,10.02
2017-10-01T17:52:25.447Z,8.27
2017-10-01T17:54:52.955Z,9.60
2017-10-01T17:57:21.446Z,8.50
2017-10-01T17:59:48.987Z,10.30
2017-10-01T18:02:16.488Z,9.87
2017-10-01T18:04:44.088Z,11.30
2017-10-01T18:07:11.828Z,10.53
2017-10-01T18:09:39.891Z,11.20
2017-10-01T18:12:10.816Z,10.00
2017-10-01T18:14:39.118Z,11.80
2017-10-01T18:17:06.870Z,9.20
2017-10-01T18:19:34.398Z,12.60
2017-10-01T18:22:02.695Z,14.40
2017-10-01T18:24:35.085Z,14.63
2017-10-01T18:27:02.596Z,12.47
2017-10-01T18:29:30.871Z,9.27
2017-10-01T18:31:58.382Z,8.23
2017-10-01T18:34:26.146Z,10.17
2017-10-01T18:36:54.010Z,9.30
2017-10-01T18:39:21.523Z,10.77
2017-10-01T18:41:56.800Z,8.90
2017-10-01T18:44:24.306Z,10.80
2017-10-01T18:46:51.868Z,10.30
2017-10-01T18:49:19.748Z,10.53
2017-10-01T18:51:48.148Z,11.27
2017-10-01T18:54:15.651Z,10.43
2017-10-01T18:56:53.548Z,9.38
2017-10-01T18:59:22.018Z,10.35
2017-10-01T19:01:49.717Z,10.30
2017-10-01T19:04:17.277Z,8.52
2017-10-01T19:06:45.514Z,15.63
2017-10-01T19:09:13.020Z,21.60
2017-10-01T19:11:40.649Z,10.40
2017-10-01T19:14:08.195Z,8.25
2017-10-01T19:16:35.963Z,7.47
2017-10-01T19:19:03.467Z,6.70
2017-10-01T19:21:31.077Z,10.50
2017-10-01T19:23:58.579Z,9.07
2017-10-01T19:26:29.443Z,7.83
2017-10-01T19:28:57.233Z,8.85
2017-10-01T19:31:25.301Z,9.93
2017-10-01T19:33:52.823Z,10.23
2017-10-01T19:36:21.095Z,10.63
2017-10-01T19:38:50.356Z,9.90
2017-10-01T19:41:17.882Z,11.00
2017-10-01T19:43:45.704Z,9.90
2017-10-01T19:46:14.952Z,10.13
2017-10-01T19:48:42.479Z,10.97
2017-10-01T19:51:10.774Z,9.73
2017-10-01T19:53:39.070Z,11.77
2017-10-01T19:56:09.774Z,8.90
2017-10-01T19:58:38.086Z,9.60
2017-10-01T20:01:05.835Z,7.67
2017-10-01T20:03:34.167Z,8.95
2017-10-01T20:06:01.671Z,9.87
2017-10-01T20:08:29.238Z,9.13
2017-10-01T20:11:01.207Z,8.30
2017-10-01T20:13:29.691Z,9.32
2017-10-01T20:15:57.211Z,8.70
2017-10-01T20:18:24.755Z,7.30
2017-10-01T20:20:52.299Z,10.07
2017-10-01T20:23:19.799Z,9.85
2017-10-01T20:25:52.092Z,9.43
2017-10-01T20:28:19.586Z,9.90
2017-10-01T20:30:47.121Z,8.83
2017-10-01T20:33:14.639Z,9.90
2017-10-01T20:35:42.991Z,9.77
2017-10-01T20:38:10.710Z,10.37
2017-10-01T20:40:41.438Z,9.48
2017-10-01T20:43:09.028Z,10.13
2017-10-01T20:45:36.914Z,11.30
2017-10-01T20:48:04.735Z,12.47
2017-10-01T20:50:32.279Z,12.25
2017-10-01T20:52:59.923Z,13.20
2017-10-01T20:55:27.484Z,11.43
2017-10-01T20:57:55.799Z,13.13
2017-10-01T21:00:23.340Z,12.57
2017-10-01T21:02:51.134Z,12.77
2017-10-01T21:05:19.112Z,12.25
2017-10-01T21:07:47.447Z,13.90
2017-10-01T21:10:16.647Z,14.10
2017-10-01T21:12:47.962Z,11.25
2017-10-01T21:15:15.479Z,10.50
2017-10-01T21:17:43.298Z,12.27
2017-10-01T21:20:11.152Z,11.88
2017-10-01T21:22:38.972Z,13.03
2017-10-01T21:25:06.479Z,10.80
2017-10-01T21:27:35.679Z,10.23
2017-10-01T21:30:03.484Z,11.83
2017-10-01T21:32:31.014Z,12.02
2017-10-01T21:34:58.973Z,10.52
2017-10-01T21:37:26.559Z,12.18
2017-10-01T21:39:55.759Z,14.10
2017-10-01T21:42:26.619Z,13.07
2017-10-01T21:44:54.171Z,14.00
2017-10-01T21:47:21.814Z,12.17
2017-10-01T21:49:50.488Z,10.98
2017-10-01T21:52:18.083Z,13.65
2017-10-01T21:54:45.732Z,11.98
2017-10-01T21:57:24.865Z,12.77
2017-10-01T21:59:52.392Z,12.30
2017-10-01T22:02:21.659Z,12.93
2017-10-01T22:04:49.195Z,10.60
2017-10-01T22:07:16.700Z,13.25
2017-10-01T22:09:44.227Z,14.30
2017-10-01T22:12:15.752Z,14.25
2017-10-01T22:14:43.512Z,15.80
2017-10-01T22:17:11.023Z,14.70
2017-10-01T22:19:38.568Z,12.70
2017-10-01T22:22:06.102Z,14.00
2017-10-01T22:24:33.617Z,13.00
2017-10-01T22:27:01.163Z,13.10
2017-10-01T22:29:29.543Z,12.27
2017-10-01T22:31:57.063Z,10.60
2017-10-01T22:34:24.703Z,10.57
2017-10-01T22:36:52.239Z,11.17
2017-10-01T22:39:20.506Z,11.10
2017-10-01T22:41:49.236Z,12.18
2017-10-01T22:44:16.781Z,12.68
2017-10-01T22:46:44.349Z,12.30
2017-10-01T22:49:11.907Z,13.30
2017-10-01T22:51:39.479Z,12.43
2017-10-01T22:54:07.948Z,14.13
2017-10-01T22:56:35.616Z,14.80
2017-10-01T22:59:03.172Z,14.70
2017-10-01T23:01:30.728Z,15.17
2017-10-01T23:03:58.439Z,14.47
2017-10-01T23:06:26.744Z,13.43
2017-10-01T23:08:54.317Z,14.77
2017-10-01T23:11:21.859Z,13.30
2017-10-01T23:13:50.184Z,13.33
2017-10-01T23:16:17.691Z,13.45
2017-10-01T23:18:46.897Z,13.27
2017-10-01T23:21:14.485Z,14.43
2017-10-01T23:23:41.994Z,14.30
2017-10-01T23:26:09.606Z,13.15
2017-10-01T23:28:37.275Z,12.98
2017-10-01T23:31:05.115Z,12.82
2017-10-01T23:33:32.651Z,12.15
2017-10-01T23:36:00.925Z,13.63
2017-10-01T23:38:28.726Z,13.10
2017-10-01T23:40:56.288Z,14.23
2017-10-01T23:43:29.166Z,15.82
2017-10-01T23:45:56.922Z,16.73
2017-10-01T23:48:25.056Z,15.60
2017-10-01T23:50:52.602Z,14.87
2017-10-01T23:53:20.136Z,14.10
2017-10-01T23:55:47.680Z,14.37
2017-10-01T23:58:15.180Z,14.80
